createdAt,value
2023-05-22T00:00:17.618Z,98126.03
2023-05-22T00:02:44.412Z,98123.63
2023-05-22T00:05:11.996Z,98119.22
2023-05-22T00:07:38.697Z,98122.41
2023-05-22T00:10:06.324Z,98121.63
2023-05-22T00:12:32.859Z,98126.44
2023-05-22T00:14:59.378Z,98125.63
2023-05-22T00:17:26.457Z,98119.59
2023-05-22T00:19:54.008Z,98125.63
2023-05-22T00:22:20.990Z,98117.22
2023-05-22T00:24:47.892Z,98131.25
2023-05-22T00:27:14.407Z,98126.03
2023-05-22T00:29:41.079Z,98122.03
2023-05-22T00:32:07.774Z,98122.44
2023-05-22T00:34:34.328Z,98118.44
2023-05-22T00:37:00.935Z,98119.63
2023-05-22T00:39:27.457Z,98108.41
2023-05-22T00:41:54.009Z,98108.00
2023-05-22T00:44:20.532Z,98112.81
2023-05-22T00:46:47.069Z,98111.22
2023-05-22T00:49:13.594Z,98106.00
2023-05-22T00:51:40.100Z,98103.63
2023-05-22T00:54:06.672Z,98104.03
2023-05-22T00:56:33.395Z,98103.59
2023-05-22T00:58:59.900Z,98104.81
2023-05-22T01:01:26.871Z,98106.44
2023-05-22T01:03:53.914Z,98098.41
2023-05-22T01:06:21.511Z,98105.22
2023-05-22T01:08:48.042Z,98097.63
2023-05-22T01:11:28.825Z,98098.81
2023-05-22T01:14:00.202Z,98098.72
2023-05-22T01:16:32.454Z,98103.16
2023-05-22T01:19:15.885Z,98089.13
2023-05-22T01:21:48.830Z,98093.13
2023-05-22T01:24:29.219Z,98093.53
2023-05-22T01:26:58.659Z,98095.88
2023-05-22T01:30:03.948Z,98095.09
2023-05-22T01:32:30.494Z,98090.34
2023-05-22T01:34:59.412Z,98088.69
2023-05-22T01:37:26.146Z,98103.09
2023-05-22T01:39:52.670Z,98090.28
2023-05-22T01:42:19.457Z,98091.09
2023-05-22T01:44:46.096Z,98095.91
2023-05-22T01:47:12.935Z,98085.44
2023-05-22T01:49:39.897Z,98088.66
2023-05-22T01:52:18.979Z,98089.84
2023-05-22T01:54:48.688Z,98096.22
2023-05-22T01:57:21.880Z,98087.84
2023-05-22T02:00:09.960Z,98080.66
2023-05-22T02:02:37.821Z,98067.91
2023-05-22T02:05:04.702Z,98067.91
2023-05-22T02:07:33.529Z,98071.53
2023-05-22T02:10:00.148Z,98068.72
2023-05-22T02:12:26.772Z,98076.72
2023-05-22T02:14:53.634Z,98069.53
2023-05-22T02:17:22.225Z,98069.50
2023-05-22T02:19:48.845Z,98069.53
2023-05-22T02:22:15.471Z,98068.28
2023-05-22T02:24:43.000Z,98075.09
2023-05-22T02:27:09.725Z,98070.28
2023-05-22T02:29:36.392Z,98061.50
2023-05-22T02:32:02.944Z,98061.88
2023-05-22T02:34:31.620Z,98056.31
2023-05-22T02:37:03.657Z,98060.72
2023-05-22T02:39:32.991Z,98061.13
2023-05-22T02:41:59.518Z,98057.50
2023-05-22T02:44:26.056Z,98060.31
2023-05-22T02:46:52.717Z,98058.28
2023-05-22T02:49:19.353Z,98051.88
2023-05-22T02:51:47.750Z,98052.28
2023-05-22T02:54:16.327Z,98054.31
2023-05-22T02:56:43.382Z,98051.91
2023-05-22T02:59:10.124Z,98049.91
2023-05-22T03:01:39.055Z,98051.84
2023-05-22T03:04:07.222Z,98047.09
2023-05-22T03:06:35.447Z,98039.09
2023-05-22T03:09:04.011Z,98047.09
2023-05-22T03:11:34.398Z,98036.69
2023-05-22T03:14:00.964Z,98045.50
2023-05-22T03:16:28.055Z,98041.50
2023-05-22T03:19:09.216Z,98035.88
2023-05-22T03:21:35.873Z,98041.03
2023-05-22T03:24:02.545Z,98041.84
2023-05-22T03:26:29.152Z,98047.84
2023-05-22T03:28:56.502Z,98043.44
2023-05-22T03:31:24.623Z,98046.91
2023-05-22T03:33:51.244Z,98039.81
2023-05-22T03:36:18.883Z,98036.63
2023-05-22T03:38:45.662Z,98044.19
2023-05-22T03:41:12.187Z,98046.19
2023-05-22T03:43:38.693Z,98042.16
2023-05-22T03:46:05.342Z,98042.63
2023-05-22T03:48:33.789Z,98046.59
2023-05-22T03:51:00.288Z,98035.44
2023-05-22T03:53:26.807Z,98039.84
2023-05-22T03:55:53.316Z,98034.25
2023-05-22T03:58:19.828Z,98043.00
2023-05-22T04:00:46.592Z,98031.06
2023-05-22T04:03:13.308Z,98043.84
2023-05-22T04:05:39.912Z,98045.06
2023-05-22T04:08:06.422Z,98037.47
2023-05-22T04:10:32.945Z,98039.09
2023-05-22T04:12:59.517Z,98041.91
2023-05-22T04:15:26.478Z,98035.09
2023-05-22T04:17:53.597Z,98038.72
2023-05-22T04:20:22.225Z,98045.13
2023-05-22T04:22:48.881Z,98045.53
2023-05-22T04:25:15.748Z,98046.75
2023-05-22T04:27:42.463Z,98047.97
2023-05-22T04:30:10.533Z,98050.34
2023-05-22T04:32:38.257Z,98048.75
2023-05-22T04:35:05.175Z,98047.53
2023-05-22T04:37:31.906Z,98043.91
2023-05-22T04:40:03.199Z,98054.34
2023-05-22T04:42:30.866Z,98047.53
2023-05-22T04:45:00.199Z,98061.56
2023-05-22T04:47:28.912Z,98049.13
2023-05-22T04:49:56.818Z,98052.38
2023-05-22T04:52:23.425Z,98048.75
2023-05-22T04:54:52.134Z,98052.38
2023-05-22T04:57:22.133Z,98057.97
2023-05-22T04:59:48.689Z,98053.97
2023-05-22T05:02:15.521Z,98053.56
2023-05-22T05:04:43.400Z,98048.78
2023-05-22T05:07:09.935Z,98051.94
2023-05-22T05:09:36.511Z,98053.94
2023-05-22T05:12:03.437Z,98047.06
2023-05-22T05:14:29.954Z,98046.59
2023-05-22T05:16:56.951Z,98042.47
2023-05-22T05:19:23.671Z,98051.16
2023-05-22T05:21:50.246Z,98045.50
2023-05-22T05:24:19.617Z,98041.06
2023-05-22T05:26:46.161Z,98041.84
2023-05-22T05:29:12.778Z,98047.47
2023-05-22T05:31:39.671Z,98038.97
2023-05-22T05:34:06.227Z,98042.09
2023-05-22T05:36:32.770Z,98039.97
2023-05-22T05:38:59.386Z,98041.16
2023-05-22T05:41:26.706Z,98045.47
2023-05-22T05:43:53.312Z,98043.28
2023-05-22T05:46:19.950Z,98037.47
2023-05-22T05:48:46.642Z,98041.34
2023-05-22T05:51:13.158Z,98036.63
2023-05-22T05:53:40.975Z,98052.16
2023-05-22T05:56:08.212Z,98043.97
2023-05-22T05:58:34.747Z,98048.75
2023-05-22T06:01:01.533Z,98041.59
2023-05-22T06:03:28.145Z,98049.88
2023-05-22T06:05:54.939Z,98061.34
2023-05-22T06:08:21.879Z,98053.06
2023-05-22T06:10:48.449Z,98051.00
2023-05-22T06:13:15.260Z,98061.50
2023-05-22T06:15:41.881Z,98056.59
2023-05-22T06:18:08.489Z,98051.56
2023-05-22T06:20:35.059Z,98052.75
2023-05-22T06:23:01.611Z,98047.09
2023-05-22T06:25:29.958Z,98056.94
2023-05-22T06:27:56.709Z,98067.16
2023-05-22T06:30:38.726Z,98054.97
2023-05-22T06:33:06.468Z,98058.72
2023-05-22T06:35:33.050Z,98054.78
2023-05-22T06:37:59.574Z,98060.72
2023-05-22T06:40:26.171Z,98064.31
2023-05-22T06:42:52.952Z,98062.06
2023-05-22T06:45:20.130Z,98055.88
2023-05-22T06:47:46.730Z,98058.63
2023-05-22T06:50:13.267Z,98057.78
2023-05-22T06:52:39.775Z,98062.41
2023-05-22T06:55:07.172Z,98058.63
2023-05-22T06:57:33.776Z,98063.53
2023-05-22T07:00:01.094Z,98062.38
2023-05-22T07:02:27.674Z,98066.22
2023-05-22T07:04:54.249Z,98063.25
2023-05-22T07:07:21.049Z,98051.16
2023-05-22T07:09:49.725Z,98057.38
2023-05-22T07:12:16.508Z,98052.75
2023-05-22T07:14:43.055Z,98058.25
2023-05-22T07:17:09.599Z,98052.09
2023-05-22T07:19:36.261Z,98060.28
2023-05-22T07:22:02.954Z,98058.25
2023-05-22T07:24:29.908Z,98059.78
2023-05-22T07:26:56.517Z,98065.00
2023-05-22T07:29:23.370Z,98060.06
2023-05-22T07:31:50.087Z,98063.63
2023-05-22T07:34:16.782Z,98076.00
2023-05-22T07:36:43.404Z,98072.66
2023-05-22T07:39:09.920Z,98065.34
2023-05-22T07:41:36.450Z,98068.84
2023-05-22T07:44:02.990Z,98064.69
2023-05-22T07:46:29.837Z,98064.69
2023-05-22T07:48:56.487Z,98062.78
2023-05-22T07:51:23.057Z,98052.94
2023-05-22T07:53:49.610Z,98065.66
2023-05-22T07:56:17.602Z,98065.88
2023-05-22T07:58:44.336Z,98059.94
2023-05-22T08:01:11.112Z,98063.50
2023-05-22T08:03:37.858Z,98061.63
2023-05-22T08:06:04.702Z,98061.94
2023-05-22T08:08:32.097Z,98072.19
2023-05-22T08:13:28.169Z,98064.63
2023-05-22T08:16:00.441Z,98077.44
2023-05-22T08:18:29.085Z,98070.25
2023-05-22T08:20:56.217Z,98075.59
2023-05-22T08:23:22.919Z,98076.94
2023-05-22T08:25:50.234Z,98077.53
2023-05-22T08:28:16.828Z,98062.34
2023-05-22T08:30:43.409Z,98067.72
2023-05-22T08:33:10.263Z,98072.13
2023-05-22T08:35:36.896Z,98066.84
2023-05-22T08:38:03.423Z,98069.88
2023-05-22T08:40:34.795Z,98061.72
2023-05-22T08:43:01.408Z,98066.78
2023-05-22T08:45:29.942Z,98074.22
2023-05-22T08:47:56.889Z,98069.91
2023-05-22T08:50:24.573Z,98070.28
2023-05-22T08:52:51.556Z,98066.25
2023-05-22T08:55:19.601Z,98064.53
2023-05-22T08:57:46.279Z,98052.88
2023-05-22T09:00:13.214Z,98065.31
2023-05-22T09:02:39.795Z,98063.22
2023-05-22T09:05:07.423Z,98061.00
2023-05-22T09:07:33.944Z,98060.59
2023-05-22T09:10:01.231Z,98064.13
2023-05-22T09:12:27.803Z,98062.44
2023-05-22T09:14:55.929Z,98059.81
2023-05-22T09:17:22.483Z,98051.63
2023-05-22T09:19:49.001Z,98069.00
2023-05-22T09:22:16.559Z,98054.28
2023-05-22T09:24:44.765Z,98053.88
2023-05-22T09:27:11.573Z,98051.34
2023-05-22T09:29:52.341Z,98060.69
2023-05-22T09:32:18.949Z,98057.81
2023-05-22T09:34:46.934Z,98053.94
2023-05-22T09:37:14.103Z,98056.59
2023-05-22T09:39:41.656Z,98065.38
2023-05-22T09:42:09.814Z,98070.16
2023-05-22T09:44:36.787Z,98065.63
2023-05-22T09:47:03.453Z,98056.81
2023-05-22T09:49:29.961Z,98055.63
2023-05-22T09:51:56.592Z,98062.75
2023-05-22T09:54:23.116Z,98062.50
2023-05-22T09:56:52.532Z,98048.88
2023-05-22T09:59:23.313Z,98053.84
2023-05-22T10:01:50.050Z,98053.19
2023-05-22T10:04:16.675Z,98056.25
2023-05-22T10:06:43.224Z,98056.19
2023-05-22T10:09:10.588Z,98056.91
2023-05-22T10:11:37.129Z,98046.81
2023-05-22T10:14:03.716Z,98055.91
2023-05-22T10:16:30.453Z,98041.13
2023-05-22T10:18:57.098Z,98046.97
2023-05-22T10:21:23.669Z,98044.00
2023-05-22T10:23:50.246Z,98043.19
2023-05-22T10:26:17.088Z,98036.81
2023-05-22T10:28:46.859Z,98038.41
2023-05-22T10:31:28.029Z,98027.16
2023-05-22T10:33:59.664Z,98042.53
2023-05-22T10:36:49.938Z,98039.03
2023-05-22T10:39:51.882Z,98039.97
2023-05-22T10:42:18.396Z,98032.88
2023-05-22T10:44:48.148Z,98027.31
2023-05-22T10:47:14.666Z,98026.72
2023-05-22T10:49:43.358Z,98018.50
2023-05-22T10:52:10.005Z,98033.03
2023-05-22T10:54:43.377Z,98033.56
2023-05-22T10:57:13.955Z,98024.31
2023-05-22T10:59:40.480Z,98015.88
2023-05-22T11:02:31.719Z,98018.94
2023-05-22T11:05:17.106Z,98026.03
2023-05-22T11:07:43.625Z,98017.22
2023-05-22T11:10:10.232Z,98025.63
2023-05-22T11:12:37.366Z,98014.06
2023-05-22T11:15:08.511Z,98024.75
2023-05-22T11:17:46.292Z,98020.41
2023-05-22T11:20:16.070Z,98015.00
2023-05-22T11:22:42.992Z,98025.88
2023-05-22T11:25:11.101Z,98015.63
2023-05-22T11:27:39.072Z,98015.19
2023-05-22T11:30:06.595Z,98012.44
2023-05-22T11:32:35.924Z,98011.72
2023-05-22T11:35:04.152Z,98008.53
2023-05-22T11:37:31.382Z,98018.31
2023-05-22T11:39:58.532Z,98008.84
2023-05-22T11:42:25.157Z,97998.72
2023-05-22T11:44:51.724Z,98007.34
2023-05-22T11:47:18.367Z,98001.78
2023-05-22T11:49:44.925Z,98001.16
2023-05-22T11:52:14.126Z,98003.94
2023-05-22T11:54:40.809Z,97995.56
2023-05-22T11:57:08.201Z,97979.88
2023-05-22T11:59:34.743Z,97989.38
2023-05-22T12:02:01.277Z,97989.34
2023-05-22T12:04:27.912Z,97976.81
2023-05-22T12:06:54.688Z,97983.38
2023-05-22T12:09:21.602Z,97978.44
2023-05-22T12:11:48.231Z,97973.06
2023-05-22T12:14:14.858Z,97977.69
2023-05-22T12:16:41.513Z,97965.09
2023-05-22T12:19:08.905Z,97975.22
2023-05-22T12:21:36.593Z,97965.28
2023-05-22T12:24:04.108Z,97973.41
2023-05-22T12:26:31.214Z,97976.00
2023-05-22T12:28:58.644Z,97961.47
2023-05-22T12:31:25.317Z,97963.03
2023-05-22T12:33:57.984Z,97959.13
2023-05-22T12:36:43.475Z,97958.72
2023-05-22T12:39:11.072Z,97966.97
2023-05-22T12:41:38.160Z,97962.72
2023-05-22T12:44:04.755Z,97974.56
2023-05-22T12:46:31.980Z,97958.41
2023-05-22T12:48:59.240Z,97964.75
2023-05-22T12:51:29.789Z,97958.31
2023-05-22T12:53:57.089Z,97964.06
2023-05-22T12:56:23.671Z,97968.28
2023-05-22T12:58:50.287Z,97963.97
2023-05-22T13:01:16.951Z,97961.97
2023-05-22T13:03:43.595Z,97956.69
2023-05-22T13:06:10.137Z,97951.31
2023-05-22T13:08:36.729Z,97951.00
2023-05-22T13:11:03.343Z,97934.22
2023-05-22T13:13:30.018Z,97941.63
2023-05-22T13:15:56.739Z,97938.28
2023-05-22T13:18:23.279Z,97926.25
2023-05-22T13:20:49.935Z,97934.72
2023-05-22T13:23:16.466Z,97936.28
2023-05-22T13:25:43.005Z,97924.31
2023-05-22T13:28:09.502Z,97933.16
2023-05-22T13:30:36.032Z,97940.03
2023-05-22T13:33:02.570Z,97926.66
2023-05-22T13:35:29.290Z,97937.50
2023-05-22T13:37:55.981Z,97943.81
2023-05-22T13:40:22.636Z,97946.59
2023-05-22T13:42:49.163Z,97939.28
2023-05-22T13:45:16.351Z,97937.06
2023-05-22T13:47:43.494Z,97930.78
2023-05-22T13:50:10.069Z,97928.06
2023-05-22T13:52:36.650Z,97927.53
2023-05-22T13:55:03.827Z,97924.50
2023-05-22T13:57:30.349Z,97914.53
2023-05-22T13:59:56.908Z,97918.47
2023-05-22T14:02:23.465Z,97922.19
2023-05-22T14:04:51.769Z,97928.53
2023-05-22T14:07:18.341Z,97924.06
2023-05-22T14:09:44.865Z,97927.84
2023-05-22T14:12:11.431Z,97923.53
2023-05-22T14:14:38.010Z,97919.44
2023-05-22T14:17:06.680Z,97928.28
2023-05-22T14:19:33.264Z,97914.34
2023-05-22T14:21:59.828Z,97913.66
2023-05-22T14:24:26.337Z,97913.41
2023-05-22T14:26:57.796Z,97914.91
2023-05-22T14:29:28.019Z,97903.38
2023-05-22T14:31:54.988Z,97897.44
2023-05-22T14:34:21.707Z,97907.81
2023-05-22T14:36:48.541Z,97910.50
2023-05-22T14:39:15.080Z,97916.16
2023-05-22T14:41:41.635Z,97935.91
2023-05-22T14:44:08.170Z,97949.94
2023-05-22T14:46:34.815Z,98006.41
2023-05-22T14:49:01.547Z,98018.44
2023-05-22T14:51:28.038Z,97998.25
2023-05-22T14:53:54.546Z,97995.91
2023-05-22T14:56:21.756Z,98003.91
2023-05-22T14:58:48.338Z,98017.50
2023-05-22T15:01:14.908Z,98046.34
2023-05-22T15:03:41.740Z,98077.19
2023-05-22T15:06:08.270Z,98077.59
2023-05-22T15:08:36.649Z,98085.53
2023-05-22T15:11:03.172Z,98075.06
2023-05-22T15:13:29.707Z,98068.06
2023-05-22T15:15:57.939Z,98077.47
2023-05-22T15:18:26.449Z,98070.50
2023-05-22T15:20:53.312Z,98061.50
2023-05-22T15:23:19.923Z,98057.47
2023-05-22T15:25:48.080Z,98034.22
2023-05-22T15:28:14.672Z,98027.00
2023-05-22T15:30:43.559Z,98022.75
2023-05-22T15:33:10.164Z,98017.78
2023-05-22T15:35:36.761Z,98014.31
2023-05-22T15:38:03.371Z,98030.44
2023-05-22T15:40:30.119Z,98039.97
2023-05-22T15:42:56.747Z,98024.69
2023-05-22T15:45:23.307Z,98030.13
2023-05-22T15:47:50.146Z,98016.84
2023-05-22T15:50:16.706Z,98005.44
2023-05-22T15:52:43.232Z,97994.06
2023-05-22T15:55:09.782Z,97985.91
2023-05-22T15:57:36.287Z,98014.91
2023-05-22T16:00:03.136Z,98006.06
2023-05-22T16:02:29.673Z,98007.72
2023-05-22T16:04:56.260Z,98010.66
2023-05-22T16:07:22.810Z,98017.50
2023-05-22T16:09:50.332Z,98029.53
2023-05-22T16:12:17.237Z,98041.53
2023-05-22T16:14:44.110Z,98056.28
2023-05-22T16:17:10.939Z,98059.09
2023-05-22T16:19:37.529Z,98061.03
2023-05-22T16:22:04.161Z,98056.63
2023-05-22T16:24:30.697Z,98073.97
2023-05-22T16:26:58.789Z,98077.53
2023-05-22T16:29:25.492Z,98066.72
2023-05-22T16:31:52.151Z,98052.69
2023-05-22T16:34:18.774Z,98050.66
2023-05-22T16:36:45.329Z,98048.66
2023-05-22T16:39:11.929Z,98055.16
2023-05-22T16:41:38.482Z,98070.78
2023-05-22T16:44:05.154Z,98084.00
2023-05-22T16:46:31.761Z,98113.97
2023-05-22T16:48:58.386Z,98127.19
2023-05-22T16:51:24.981Z,98147.22
2023-05-22T16:53:51.584Z,98145.56
2023-05-22T16:56:20.482Z,98143.97
2023-05-22T16:58:47.560Z,98127.25
2023-05-22T17:01:14.289Z,98112.41
2023-05-22T17:03:41.210Z,98087.22
2023-05-22T17:06:08.856Z,98073.53
2023-05-22T17:08:35.464Z,98064.69
2023-05-22T17:11:01.982Z,98069.88
2023-05-22T17:13:28.545Z,98065.06
2023-05-22T17:15:55.094Z,98058.69
2023-05-22T17:18:21.774Z,98053.06
2023-05-22T17:20:51.694Z,98068.16
2023-05-22T17:23:18.376Z,98063.78
2023-05-22T17:25:46.703Z,98063.41
2023-05-22T17:28:14.430Z,98063.00
2023-05-22T17:30:42.304Z,98064.50
2023-05-22T17:33:09.205Z,98056.06
2023-05-22T17:35:35.819Z,98066.06
2023-05-22T17:38:02.368Z,98064.97
2023-05-22T17:40:43.094Z,98065.78
2023-05-22T17:43:11.728Z,98057.34
2023-05-22T17:45:38.278Z,98061.31
2023-05-22T17:48:06.288Z,98056.53
2023-05-22T17:50:33.019Z,98048.53
2023-05-22T17:52:59.531Z,98046.88
2023-05-22T17:55:26.063Z,98056.38
2023-05-22T17:57:52.747Z,98053.59
2023-05-22T18:00:19.534Z,98049.28
2023-05-22T18:02:48.026Z,98050.13
2023-05-22T18:05:15.199Z,98032.16
2023-05-22T18:07:41.759Z,98032.53
2023-05-22T18:10:08.832Z,98037.66
2023-05-22T18:12:37.997Z,98036.47
2023-05-22T18:15:05.139Z,98039.31
2023-05-22T18:17:32.470Z,98044.50
2023-05-22T18:19:59.222Z,98041.72
2023-05-22T18:22:25.785Z,98040.13
2023-05-22T18:24:52.304Z,98044.09
2023-05-22T18:27:18.839Z,98041.72
2023-05-22T18:29:45.436Z,98042.94
2023-05-22T18:32:13.593Z,98040.19
2023-05-22T18:34:40.130Z,98042.97
2023-05-22T18:37:06.658Z,98044.25
2023-05-22T18:39:33.203Z,98050.25
2023-05-22T18:41:59.735Z,98049.44
2023-05-22T18:44:26.293Z,98045.03
2023-05-22T18:46:52.858Z,98064.97
2023-05-22T18:49:19.534Z,98078.19
2023-05-22T18:51:46.320Z,98090.97
2023-05-22T18:54:12.842Z,98090.19
2023-05-22T18:56:39.436Z,98107.84
2023-05-22T18:59:05.981Z,98102.28
2023-05-22T19:01:32.872Z,98107.09
2023-05-22T19:03:59.503Z,98120.75
2023-05-22T19:06:26.167Z,98121.13
2023-05-22T19:08:52.760Z,98139.94
2023-05-22T19:11:19.299Z,98149.53
2023-05-22T19:13:45.827Z,98161.09
2023-05-22T19:16:14.099Z,98167.13
2023-05-22T19:18:40.674Z,98166.28
2023-05-22T19:21:07.191Z,98168.69
2023-05-22T19:23:33.814Z,98170.66
2023-05-22T19:26:00.592Z,98173.03
2023-05-22T19:28:27.173Z,98169.47
2023-05-22T19:30:54.093Z,98176.69
2023-05-22T19:33:24.661Z,98175.91
2023-05-22T19:35:51.298Z,98168.72
2023-05-22T19:38:18.030Z,98158.28
2023-05-22T19:40:44.576Z,98153.88
2023-05-22T19:43:11.326Z,98154.28
2023-05-22T19:45:37.961Z,98159.06
2023-05-22T19:48:04.628Z,98168.66
2023-05-22T19:50:31.180Z,98171.84
2023-05-22T19:52:58.407Z,98159.44
2023-05-22T19:55:25.640Z,98164.63
2023-05-22T19:57:52.428Z,98162.53
2023-05-22T20:00:19.533Z,98163.72
2023-05-22T20:02:46.208Z,98159.31
2023-05-22T20:05:15.639Z,98166.91
2023-05-22T20:07:42.288Z,98166.94
2023-05-22T20:10:10.057Z,98173.31
2023-05-22T20:12:37.146Z,98175.31
2023-05-22T20:15:04.329Z,98170.84
2023-05-22T20:17:30.935Z,98163.28
2023-05-22T20:20:00.363Z,98160.13
2023-05-22T20:22:27.230Z,98157.34
2023-05-22T20:24:53.925Z,98160.53
2023-05-22T20:27:20.457Z,98156.47
2023-05-22T20:29:49.851Z,98161.66
2023-05-22T20:32:17.184Z,98158.06
2023-05-22T20:34:45.144Z,98157.50
2023-05-22T20:37:13.516Z,98156.75
2023-05-22T20:39:41.766Z,98157.88
2023-05-22T20:42:11.171Z,98165.75
2023-05-22T20:44:38.208Z,98170.13
2023-05-22T20:47:05.898Z,98178.13
2023-05-22T20:49:34.682Z,98179.34
2023-05-22T20:52:01.567Z,98188.66
2023-05-22T20:54:34.156Z,98175.91
2023-05-22T20:57:01.459Z,98176.50
2023-05-22T20:59:28.962Z,98168.63
2023-05-22T21:01:56.881Z,98171.06
2023-05-22T21:04:23.525Z,98167.91
2023-05-22T21:06:50.243Z,98171.91
2023-05-22T21:09:16.833Z,98159.88
2023-05-22T21:11:43.475Z,98171.84
2023-05-22T21:14:10.003Z,98168.25
2023-05-22T21:16:39.245Z,98168.94
2023-05-22T21:19:07.105Z,98168.38
2023-05-22T21:21:33.798Z,98169.16
2023-05-22T21:24:00.335Z,98175.56
2023-05-22T21:26:27.461Z,98182.75
2023-05-22T21:28:54.642Z,98177.63
2023-05-22T21:31:21.248Z,98177.94
2023-05-22T21:33:47.851Z,98182.34
2023-05-22T21:36:14.662Z,98181.16
2023-05-22T21:38:41.268Z,98175.03
2023-05-22T21:41:07.854Z,98180.97
2023-05-22T21:43:34.379Z,98185.66
2023-05-22T21:46:00.899Z,98187.59
2023-05-22T21:48:27.524Z,98187.09
2023-05-22T21:50:54.116Z,98201.72
2023-05-22T21:53:20.950Z,98193.69
2023-05-22T21:55:47.772Z,98188.34
2023-05-22T21:58:14.589Z,98195.66
2023-05-22T22:00:41.516Z,98196.47
2023-05-22T22:03:08.369Z,98189.00
2023-05-22T22:05:35.793Z,98197.00
2023-05-22T22:08:02.444Z,98189.94
2023-05-22T22:10:28.960Z,98189.16
2023-05-22T22:12:55.619Z,98190.88
2023-05-22T22:15:22.203Z,98189.75
2023-05-22T22:17:50.181Z,98193.34
2023-05-22T22:20:18.694Z,98194.94
2023-05-22T22:22:47.125Z,98192.13
2023-05-22T22:25:13.689Z,98189.41
2023-05-22T22:27:40.645Z,98196.97
2023-05-22T22:30:09.953Z,98195.38
2023-05-22T22:32:37.240Z,98201.44
2023-05-22T22:35:03.918Z,98201.00
2023-05-22T22:37:31.086Z,98197.09
2023-05-22T22:39:57.654Z,98196.25
2023-05-22T22:42:24.773Z,98197.09
2023-05-22T22:44:51.289Z,98196.78
2023-05-22T22:47:18.065Z,98206.47
2023-05-22T22:49:44.586Z,98198.47
2023-05-22T22:52:11.199Z,98195.28
2023-05-22T22:54:37.865Z,98187.66
2023-05-22T22:57:04.603Z,98188.47
2023-05-22T22:59:31.771Z,98185.69
2023-05-22T23:01:58.333Z,98186.84
2023-05-22T23:04:24.974Z,98194.81
2023-05-22T23:06:52.612Z,98195.28
2023-05-22T23:09:19.249Z,98189.25
2023-05-22T23:11:45.792Z,98192.91
2023-05-22T23:14:13.456Z,98202.09
2023-05-22T23:16:43.128Z,98204.50
2023-05-22T23:19:10.443Z,98207.25
2023-05-22T23:21:37.049Z,98199.25
2023-05-22T23:24:04.456Z,98198.88
2023-05-22T23:26:31.729Z,98208.47
2023-05-22T23:29:01.270Z,98204.41
2023-05-22T23:31:30.545Z,98205.19
2023-05-22T23:33:57.452Z,98206.78
2023-05-22T23:36:24.429Z,98201.19
2023-05-22T23:38:51.012Z,98202.78
2023-05-22T23:41:17.926Z,98191.94
2023-05-22T23:43:45.047Z,98203.56
2023-05-22T23:46:14.762Z,98207.91
2023-05-22T23:48:41.725Z,98206.22
2023-05-22T23:51:14.060Z,98210.25
2023-05-22T23:53:43.616Z,98212.19
2023-05-22T23:56:10.291Z,98200.19
2023-05-22T23:58:39.581Z,98201.34
